Etusivu
METAR-TAF:

METAR-TAF

Lentoasemat :

Växjö, Ruotsi

Leveyspiiri: 56-51N, Pituuspiiri: 014-50E, korkeus merenpinnasta: 199 m

Tämänhetkinen sää

Tämä raportti tehtiin 43 minuuttia sitten, kello 07.50 UTC
Tuuli 9 kn etelästä/lounaasta
Lämpötila 15°C
Kosteus 100%
Ilmanpaine 1010 hPa
Näkyvyys 10 km tai enemmän
Hajanaisia pilviä 900 ft:n korkeudessa
Hajonneita pilviä 2200 ft:n korkeudessa

METAR: ESMX 140750Z 20009KT 9999 SCT009 BKN022 15/15 Q1010

Aika: 10:33 (08:33 UTC)

Sääennuste

Tämä raportti tehtiin 2 tuntia ja 3 minuuttia sitten, kello 06.30 UTC
Ennuste voimassa 14. päivästä klo 07 UTC - 14. päivään klo 11 UTC
Tuuli 8 kn lounaasta
Näkyvyys 10 km tai enemmän
Hajonneita pilviä 1400 ft:n korkeudessa
Tulossa
14. päivästä klo 07 UTC - 14. päivään klo 09 UTC
Hajonneita pilviä 2000 ft:n korkeudessa

TAF: ESMX 140630Z 1407/1411 22008KT 9999 BKN014 BECMG 1407/1409 BKN020

Säähavainnot ja -ennusteet yli 4000 lentoasemalta (METAR- ja TAF-raportit).

Käytössä olevat sääasemat on merkitty karttaan keltaisilla ja punaisilla pisteillä.

Aseta hiiri pisteen päälle nähdäksesi sääaseman nimen.

Klikkaa sitten nähdäksesi säähavainnot ja -ennusteet.

Kartan vaihtaminen: klikkaa mustalla rastilla varustettuja vihreitä pisteitä, niin voit zoomata sisään; viivalla varustettua vihreää pistettä, niin voit zoomata ulos tai vihreitä nuolia, niin pääset viereisille kartoille.


METAR-TAF: